createdAt,value
2023-02-19T00:02:13.663Z,19.30
2023-02-19T00:04:42.689Z,15.60
2023-02-19T00:07:12.891Z,19.37
2023-02-19T00:09:41.771Z,18.70
2023-02-19T00:12:10.650Z,16.37
2023-02-19T00:14:39.464Z,16.40
2023-02-19T00:17:08.288Z,15.30
2023-02-19T00:19:37.190Z,14.63
2023-02-19T00:22:05.995Z,13.77
2023-02-19T00:24:36.258Z,12.90
2023-02-19T00:27:05.258Z,16.07
2023-02-19T00:29:34.239Z,16.10
2023-02-19T00:32:03.232Z,17.03
2023-02-19T00:34:32.145Z,14.77
2023-02-19T00:37:01.100Z,15.97
2023-02-19T00:39:29.919Z,14.33
2023-02-19T00:42:01.008Z,16.37
2023-02-19T00:44:29.903Z,17.00
2023-02-19T00:46:58.698Z,17.77
2023-02-19T00:49:27.492Z,17.13
2023-02-19T00:51:56.480Z,16.13
2023-02-19T00:54:25.348Z,16.13
2023-02-19T00:56:54.306Z,15.73
2023-02-19T00:59:24.645Z,65.13
2023-02-19T01:01:53.578Z,75.87
2023-02-19T01:04:22.456Z,63.87
2023-02-19T01:06:51.365Z,51.27
2023-02-19T01:09:20.334Z,42.07
2023-02-19T01:11:49.130Z,43.60
2023-02-19T01:14:17.969Z,44.23
2023-02-19T01:16:48.297Z,47.97
2023-02-19T01:19:17.335Z,40.53
2023-02-19T01:21:46.122Z,44.17
2023-02-19T01:24:16.041Z,39.87
2023-02-19T01:26:45.454Z,40.83
2023-02-19T01:29:14.237Z,34.80
2023-02-19T01:31:43.507Z,33.97
2023-02-19T01:34:14.172Z,30.47
2023-02-19T01:36:43.019Z,35.13
2023-02-19T01:39:12.483Z,32.30
2023-02-19T01:41:43.285Z,37.33
2023-02-19T01:44:45.107Z,35.10
2023-02-19T01:47:15.102Z,37.43
2023-02-19T01:49:49.901Z,39.17
2023-02-19T01:52:23.805Z,35.50
2023-02-19T01:54:53.187Z,39.73
2023-02-19T01:57:25.575Z,34.27
2023-02-19T01:59:59.007Z,32.47
2023-02-19T02:02:28.694Z,22.10
2023-02-19T02:05:01.176Z,22.00
2023-02-19T02:07:47.230Z,18.90
2023-02-19T02:10:21.876Z,20.20
2023-02-19T02:12:52.742Z,20.60
2023-02-19T02:15:22.487Z,24.77
2023-02-19T02:17:57.415Z,30.80
2023-02-19T02:20:37.398Z,29.13
2023-02-19T02:23:16.252Z,24.80
2023-02-19T02:26:12.649Z,17.53
2023-02-19T02:29:18.005Z,16.70
2023-02-19T02:31:52.980Z,55.27
2023-02-19T02:34:28.058Z,54.20
2023-02-19T02:36:58.241Z,37.90
2023-02-19T02:39:29.547Z,47.33
2023-02-19T02:42:18.743Z,51.97
2023-02-19T02:45:20.915Z,50.50
2023-02-19T02:47:53.864Z,32.67
2023-02-19T02:50:44.508Z,32.53
2023-02-19T02:53:35.268Z,27.57
2023-02-19T02:56:05.445Z,28.83
2023-02-19T02:58:36.452Z,23.23
2023-02-19T03:01:28.272Z,21.50
2023-02-19T03:04:02.466Z,24.07
2023-02-19T03:06:35.039Z,32.50
2023-02-19T03:09:10.760Z,26.90
2023-02-19T03:12:00.041Z,23.43
2023-02-19T03:14:52.531Z,25.73
2023-02-19T03:17:43.529Z,25.87
2023-02-19T03:20:17.361Z,32.40
2023-02-19T03:22:47.418Z,28.30
2023-02-19T03:25:37.548Z,45.33
2023-02-19T03:28:11.292Z,34.03
2023-02-19T03:30:44.632Z,35.50
2023-02-19T03:33:17.324Z,34.50
2023-02-19T03:35:52.467Z,34.30
2023-02-19T03:38:26.772Z,42.40
2023-02-19T03:41:01.284Z,36.13
2023-02-19T03:43:55.534Z,43.77
2023-02-19T03:46:29.122Z,37.33
2023-02-19T03:49:03.901Z,28.87
2023-02-19T03:51:40.689Z,15.23
2023-02-19T03:54:16.692Z,34.23
2023-02-19T03:56:51.207Z,42.90
2023-02-19T03:59:25.267Z,30.57
2023-02-19T04:01:57.775Z,15.50
2023-02-19T04:04:30.793Z,17.13
2023-02-19T04:07:01.724Z,28.17
2023-02-19T04:09:38.646Z,25.77
2023-02-19T04:12:14.095Z,19.40
2023-02-19T04:14:48.229Z,20.97
2023-02-19T04:17:41.112Z,16.83
2023-02-19T04:20:12.097Z,22.13
2023-02-19T04:22:43.498Z,21.13
2023-02-19T04:25:12.602Z,22.30
2023-02-19T04:27:42.102Z,29.03
2023-02-19T04:30:14.378Z,34.37
2023-02-19T04:32:43.390Z,34.93
2023-02-19T04:35:12.361Z,40.43
2023-02-19T04:37:42.594Z,32.17
2023-02-19T04:40:12.554Z,30.70
2023-02-19T04:42:41.499Z,28.33
2023-02-19T04:45:10.671Z,34.33
2023-02-19T04:47:39.441Z,25.37
2023-02-19T04:50:09.199Z,24.30
2023-02-19T04:52:38.059Z,24.00
2023-02-19T04:55:09.884Z,28.97
2023-02-19T04:57:57.301Z,32.07
2023-02-19T05:00:26.136Z,34.83
2023-02-19T05:03:13.492Z,44.73
2023-02-19T05:05:42.326Z,85.67
2023-02-19T05:08:12.602Z,73.70
2023-02-19T05:10:46.755Z,62.50
2023-02-19T05:13:15.753Z,56.27
2023-02-19T05:15:44.619Z,36.97
2023-02-19T05:18:13.670Z,50.27
2023-02-19T05:20:43.152Z,53.77
2023-02-19T05:23:12.680Z,64.60
2023-02-19T05:25:43.405Z,56.17
2023-02-19T05:28:30.938Z,65.57
2023-02-19T05:30:59.913Z,71.43
2023-02-19T05:33:28.956Z,83.47
2023-02-19T05:36:04.140Z,97.73
2023-02-19T05:38:34.304Z,64.77
2023-02-19T05:43:56.371Z,70.07
2023-02-19T05:46:28.318Z,59.23
2023-02-19T05:48:58.466Z,54.13
2023-02-19T05:51:46.200Z,60.10
2023-02-19T05:54:20.776Z,46.77
2023-02-19T05:57:01.470Z,41.53
2023-02-19T05:59:32.654Z,46.80
2023-02-19T06:02:01.744Z,38.13
2023-02-19T06:04:33.591Z,50.97
2023-02-19T06:07:02.514Z,37.80
2023-02-19T06:09:32.601Z,33.53
2023-02-19T06:12:03.967Z,32.27
2023-02-19T06:14:34.290Z,41.60
2023-02-19T06:17:04.571Z,56.47
2023-02-19T06:19:33.480Z,36.53
2023-02-19T06:22:02.666Z,36.37
2023-02-19T06:24:31.742Z,46.97
2023-02-19T06:27:00.739Z,46.07
2023-02-19T06:29:34.822Z,65.07
2023-02-19T06:32:04.003Z,60.83
2023-02-19T06:34:33.985Z,58.20
2023-02-19T06:37:04.897Z,52.43
2023-02-19T06:39:34.402Z,50.53
2023-02-19T06:42:03.364Z,44.53
2023-02-19T06:44:33.659Z,44.37
2023-02-19T06:47:03.444Z,72.20
2023-02-19T06:49:32.324Z,45.50
2023-02-19T06:52:02.158Z,39.30
2023-02-19T06:54:31.702Z,31.70
2023-02-19T06:57:00.677Z,35.03
2023-02-19T06:59:29.716Z,32.60
2023-02-19T07:02:15.622Z,50.40
2023-02-19T07:04:46.361Z,45.70
2023-02-19T07:07:15.402Z,40.93
2023-02-19T07:09:45.138Z,36.73
2023-02-19T07:12:14.064Z,37.87
2023-02-19T07:14:42.866Z,46.67
2023-02-19T07:17:22.592Z,51.57
2023-02-19T07:19:54.076Z,69.43
2023-02-19T07:22:23.498Z,73.80
2023-02-19T07:24:52.302Z,41.57
2023-02-19T07:27:21.413Z,60.43
2023-02-19T07:29:51.704Z,35.77
2023-02-19T07:32:22.568Z,43.17
2023-02-19T07:34:51.842Z,86.13
2023-02-19T07:37:20.844Z,41.87
2023-02-19T07:39:50.217Z,37.63
2023-02-19T07:42:19.162Z,35.77
2023-02-19T07:44:48.098Z,34.73
2023-02-19T07:47:16.939Z,34.60
2023-02-19T07:49:47.199Z,47.80
2023-02-19T07:52:16.033Z,52.13
2023-02-19T07:54:44.908Z,43.10
2023-02-19T07:57:14.682Z,46.03
2023-02-19T07:59:43.440Z,58.20
2023-02-19T08:02:35.226Z,40.43
2023-02-19T08:05:06.192Z,28.23
2023-02-19T08:07:36.052Z,38.80
2023-02-19T08:10:25.911Z,30.30
2023-02-19T08:13:19.420Z,29.43
2023-02-19T08:15:48.839Z,33.43
2023-02-19T08:18:18.685Z,30.13
2023-02-19T08:20:49.176Z,37.43
2023-02-19T08:23:20.800Z,40.43
2023-02-19T08:26:00.639Z,39.93
2023-02-19T08:28:30.924Z,70.13
2023-02-19T08:31:03.240Z,59.43
2023-02-19T08:33:33.253Z,53.07
2023-02-19T08:36:09.060Z,40.97
2023-02-19T08:38:41.043Z,33.80
2023-02-19T08:41:12.165Z,30.00
2023-02-19T08:43:41.364Z,24.60
2023-02-19T08:46:12.077Z,19.40
2023-02-19T08:48:41.336Z,20.93
2023-02-19T08:51:23.539Z,11.97
2023-02-19T08:53:52.457Z,18.97
2023-02-19T08:56:21.294Z,20.50
2023-02-19T08:58:56.043Z,23.17
2023-02-19T09:01:25.095Z,20.37
2023-02-19T09:03:55.960Z,22.13
2023-02-19T09:06:27.302Z,26.90
2023-02-19T09:08:56.259Z,42.00
2023-02-19T09:11:25.052Z,38.63
2023-02-19T09:13:54.009Z,39.60
2023-02-19T09:16:22.911Z,41.23
2023-02-19T09:18:51.926Z,33.43
2023-02-19T09:21:20.747Z,40.37
2023-02-19T09:23:51.042Z,38.43
2023-02-19T09:26:25.624Z,37.43
2023-02-19T09:28:54.651Z,34.50
2023-02-19T09:31:23.559Z,31.07
2023-02-19T09:33:53.001Z,32.03
2023-02-19T09:36:21.879Z,24.33
2023-02-19T09:38:58.214Z,70.43
2023-02-19T09:41:31.384Z,17.33
2023-02-19T09:47:05.253Z,16.43
2023-02-19T09:49:36.510Z,17.27
2023-02-19T09:52:11.021Z,14.20
2023-02-19T09:54:42.474Z,17.27
2023-02-19T09:57:16.267Z,27.50
2023-02-19T09:59:49.501Z,10.67
2023-02-19T10:02:23.986Z,7.50
2023-02-19T10:04:54.501Z,12.83
2023-02-19T10:07:25.740Z,22.33
2023-02-19T10:10:01.338Z,11.77
2023-02-19T10:12:36.884Z,11.63
2023-02-19T10:15:14.802Z,7.63
2023-02-19T10:17:43.904Z,21.67
2023-02-19T10:20:16.427Z,10.37
2023-02-19T10:22:45.348Z,22.27
2023-02-19T10:25:18.001Z,12.87
2023-02-19T10:27:47.151Z,16.17
2023-02-19T10:30:23.306Z,16.57
2023-02-19T10:33:04.634Z,7.73
2023-02-19T10:35:38.150Z,14.47
2023-02-19T10:38:08.538Z,9.50
2023-02-19T10:40:46.241Z,11.90
2023-02-19T10:43:25.870Z,18.93
2023-02-19T10:45:54.910Z,17.07
2023-02-19T10:48:26.072Z,18.27
2023-02-19T10:50:58.475Z,13.20
2023-02-19T10:53:43.339Z,13.20
2023-02-19T10:56:16.203Z,19.13
2023-02-19T10:58:47.450Z,14.27
2023-02-19T11:01:22.342Z,11.83
2023-02-19T11:03:52.587Z,14.70
2023-02-19T11:06:27.169Z,9.40
2023-02-19T11:08:58.890Z,12.70
2023-02-19T11:11:33.464Z,11.20
2023-02-19T11:14:06.511Z,13.27
2023-02-19T11:16:47.821Z,13.00
2023-02-19T11:19:29.923Z,16.77
2023-02-19T11:22:00.477Z,14.60
2023-02-19T11:24:35.348Z,10.77
2023-02-19T11:27:09.720Z,16.77
2023-02-19T11:29:39.179Z,16.47
2023-02-19T11:32:29.556Z,10.70
2023-02-19T11:35:19.937Z,9.13
2023-02-19T11:38:00.163Z,7.37
2023-02-19T11:40:40.432Z,13.20
2023-02-19T11:43:26.203Z,8.37
2023-02-19T11:46:03.848Z,14.13
2023-02-19T11:48:54.005Z,14.57
2023-02-19T11:51:42.467Z,15.33
2023-02-19T11:54:55.290Z,14.27
2023-02-19T11:57:49.383Z,14.47
2023-02-19T12:00:29.236Z,8.80
2023-02-19T12:03:38.035Z,10.67
2023-02-19T12:06:22.617Z,8.80
2023-02-19T12:09:17.609Z,9.17
2023-02-19T12:12:20.320Z,8.57
2023-02-19T12:15:15.049Z,18.23
2023-02-19T12:18:19.329Z,15.47
2023-02-19T12:21:00.404Z,13.50
2023-02-19T12:23:47.027Z,8.73
2023-02-19T12:26:27.205Z,13.57
2023-02-19T12:29:26.541Z,11.00
2023-02-19T12:32:18.606Z,10.30
2023-02-19T12:35:23.289Z,6.93
2023-02-19T12:38:06.035Z,6.87
2023-02-19T12:40:51.236Z,7.63
2023-02-19T12:43:27.648Z,15.50
2023-02-19T12:46:21.702Z,16.07
2023-02-19T12:48:56.684Z,11.37
2023-02-19T12:51:30.331Z,11.10
2023-02-19T12:54:06.221Z,13.97
2023-02-19T12:56:41.032Z,8.97
2023-02-19T12:59:16.435Z,14.90
2023-02-19T13:01:51.082Z,16.23
2023-02-19T13:04:26.505Z,8.80
2023-02-19T13:07:00.386Z,14.03
2023-02-19T13:09:34.839Z,11.00
2023-02-19T13:12:08.974Z,12.33
2023-02-19T13:14:43.189Z,15.20
2023-02-19T13:17:23.836Z,16.90
2023-02-19T13:20:00.002Z,9.93
2023-02-19T13:22:53.164Z,15.17
2023-02-19T13:25:25.642Z,10.30
2023-02-19T13:28:05.773Z,6.73
2023-02-19T13:31:03.114Z,8.30
2023-02-19T13:33:45.550Z,9.17
2023-02-19T13:36:17.139Z,7.67
2023-02-19T13:38:48.900Z,11.73
2023-02-19T13:41:28.787Z,5.47
2023-02-19T13:44:03.997Z,10.73
2023-02-19T13:46:42.748Z,10.53
2023-02-19T13:49:44.426Z,8.10
2023-02-19T13:52:37.061Z,8.77
2023-02-19T13:55:44.366Z,7.53
2023-02-19T13:59:02.712Z,8.77
2023-02-19T14:02:14.797Z,10.23
2023-02-19T14:04:57.245Z,8.90
2023-02-19T14:08:01.548Z,10.53
2023-02-19T14:11:05.137Z,10.97
2023-02-19T14:14:10.028Z,9.37
2023-02-19T14:16:56.125Z,16.40
2023-02-19T14:20:00.458Z,11.07
2023-02-19T14:23:01.733Z,15.27
2023-02-19T14:25:38.417Z,12.03
2023-02-19T14:28:18.631Z,8.40
2023-02-19T14:30:51.422Z,7.47
2023-02-19T14:33:25.910Z,12.17
2023-02-19T14:36:06.015Z,16.90
2023-02-19T14:38:40.390Z,14.40
2023-02-19T14:41:13.788Z,6.87
2023-02-19T14:43:43.700Z,9.87
2023-02-19T14:46:22.069Z,27.87
2023-02-19T14:48:52.179Z,10.93
2023-02-19T14:51:28.857Z,12.67
2023-02-19T14:54:00.336Z,9.20
2023-02-19T14:56:33.789Z,13.67
2023-02-19T14:59:22.340Z,19.13
2023-02-19T15:01:57.069Z,21.00
2023-02-19T15:04:27.607Z,28.90
2023-02-19T15:06:57.801Z,21.80
2023-02-19T15:09:33.463Z,17.57
2023-02-19T15:12:04.308Z,37.30
2023-02-19T15:14:34.776Z,46.00
2023-02-19T15:17:06.912Z,27.00
2023-02-19T15:19:39.757Z,28.90
2023-02-19T15:22:13.409Z,22.03
2023-02-19T15:24:48.599Z,21.10
2023-02-19T15:27:20.938Z,27.83
2023-02-19T15:29:53.435Z,28.77
2023-02-19T15:32:26.399Z,37.30
2023-02-19T15:34:56.739Z,25.07
2023-02-19T15:37:30.476Z,18.93
2023-02-19T15:40:08.046Z,16.47
2023-02-19T15:42:38.824Z,13.73
2023-02-19T15:45:17.681Z,31.47
2023-02-19T15:47:50.905Z,17.40
2023-02-19T15:50:24.658Z,16.60
2023-02-19T15:52:59.812Z,14.60
2023-02-19T15:55:36.536Z,31.97
2023-02-19T15:58:14.834Z,26.10
2023-02-19T16:00:48.026Z,25.33
2023-02-19T16:03:21.002Z,25.70
2023-02-19T16:06:00.837Z,21.33
2023-02-19T16:08:34.221Z,16.93
2023-02-19T16:11:07.034Z,16.07
2023-02-19T16:13:37.263Z,18.83
2023-02-19T16:16:17.599Z,17.30
2023-02-19T16:18:48.290Z,21.27
2023-02-19T16:21:19.021Z,18.97
2023-02-19T16:23:50.764Z,23.53
2023-02-19T16:26:21.140Z,26.50
2023-02-19T16:28:53.473Z,25.43
2023-02-19T16:31:24.650Z,26.57
2023-02-19T16:33:53.775Z,25.83
2023-02-19T16:36:38.230Z,26.37
2023-02-19T16:39:26.824Z,26.80
2023-02-19T16:42:21.315Z,30.63
2023-02-19T16:44:50.377Z,33.80
2023-02-19T16:47:28.907Z,26.73
2023-02-19T16:50:01.386Z,24.93
2023-02-19T16:52:30.826Z,28.13
2023-02-19T16:55:00.323Z,28.30
2023-02-19T16:57:30.909Z,28.30
2023-02-19T16:59:59.865Z,24.43
2023-02-19T17:02:28.737Z,20.70
2023-02-19T17:04:57.832Z,32.47
2023-02-19T17:07:27.670Z,31.77
2023-02-19T17:09:57.091Z,28.80
2023-02-19T17:12:25.954Z,19.07
2023-02-19T17:14:56.158Z,24.07
2023-02-19T17:17:25.002Z,25.37
2023-02-19T17:19:53.910Z,26.77
2023-02-19T17:22:22.710Z,22.53
2023-02-19T17:24:51.711Z,27.90
2023-02-19T17:27:20.587Z,25.23
2023-02-19T17:29:49.383Z,24.50
2023-02-19T17:32:19.740Z,25.30
2023-02-19T17:34:49.815Z,16.53
2023-02-19T17:37:18.718Z,19.50
2023-02-19T17:39:47.557Z,15.47
2023-02-19T17:42:16.380Z,15.87
2023-02-19T17:44:46.897Z,23.40
2023-02-19T17:47:15.768Z,16.33
2023-02-19T17:49:46.611Z,20.03
2023-02-19T17:52:17.840Z,23.63
2023-02-19T17:54:46.986Z,17.27
2023-02-19T17:57:16.323Z,25.33
2023-02-19T17:59:45.619Z,22.77
2023-02-19T18:02:15.334Z,18.97
2023-02-19T18:04:47.106Z,15.87
2023-02-19T18:07:17.033Z,16.57
2023-02-19T18:09:46.360Z,39.87
2023-02-19T18:12:15.163Z,21.50
2023-02-19T18:14:46.484Z,18.73
2023-02-19T18:17:16.235Z,22.17
2023-02-19T18:19:47.414Z,22.50
2023-02-19T18:22:18.751Z,21.90
2023-02-19T18:24:48.684Z,28.87
2023-02-19T18:27:18.755Z,26.27
2023-02-19T18:29:52.599Z,28.80
2023-02-19T18:32:22.287Z,37.43
2023-02-19T18:35:00.498Z,34.67
2023-02-19T18:37:35.329Z,39.57
2023-02-19T18:40:11.280Z,43.50
2023-02-19T18:42:42.942Z,70.67
2023-02-19T18:45:13.257Z,64.47
2023-02-19T18:48:01.404Z,70.93
2023-02-19T18:50:32.026Z,52.93
2023-02-19T18:53:01.458Z,51.40
2023-02-19T18:55:30.500Z,60.50
2023-02-19T18:57:59.998Z,48.37
2023-02-19T19:00:32.837Z,73.40
2023-02-19T19:03:07.006Z,63.13
2023-02-19T19:05:37.385Z,57.30
2023-02-19T19:08:07.070Z,60.07
2023-02-19T19:10:35.957Z,52.47
2023-02-19T19:13:07.607Z,39.37
2023-02-19T19:15:36.882Z,29.07
2023-02-19T19:18:06.677Z,23.30
2023-02-19T19:20:37.189Z,24.60
2023-02-19T19:23:06.679Z,29.97
2023-02-19T19:25:35.611Z,27.30
2023-02-19T19:28:04.548Z,42.23
2023-02-19T19:30:33.932Z,49.20
2023-02-19T19:33:03.755Z,48.33
2023-02-19T19:35:32.606Z,52.40
2023-02-19T19:38:03.271Z,54.07
2023-02-19T19:40:32.207Z,50.87
2023-02-19T19:43:01.092Z,58.23
2023-02-19T19:45:30.195Z,67.70
2023-02-19T19:47:59.192Z,54.30
2023-02-19T19:50:28.761Z,64.47
2023-02-19T19:52:57.751Z,46.03
2023-02-19T19:55:28.209Z,48.80
2023-02-19T19:58:16.965Z,56.50
2023-02-19T20:00:46.394Z,41.47
2023-02-19T20:03:15.420Z,50.63
2023-02-19T20:05:45.992Z,45.70
2023-02-19T20:08:15.558Z,46.50
2023-02-19T20:11:08.905Z,58.53
2023-02-19T20:13:37.902Z,58.90
2023-02-19T20:16:26.584Z,59.77
2023-02-19T20:18:55.613Z,72.77
2023-02-19T20:21:26.427Z,62.03
2023-02-19T20:23:55.405Z,66.50
2023-02-19T20:26:27.970Z,65.13
2023-02-19T20:28:57.354Z,68.27
2023-02-19T20:31:26.676Z,63.27
2023-02-19T20:33:55.705Z,67.67
2023-02-19T20:36:28.612Z,69.90
2023-02-19T20:39:00.247Z,75.20
2023-02-19T20:41:30.824Z,66.17
2023-02-19T20:43:59.853Z,59.13
2023-02-19T20:46:30.015Z,54.13
2023-02-19T20:48:59.116Z,47.57
2023-02-19T20:51:27.984Z,48.60
2023-02-19T20:53:56.748Z,48.17
2023-02-19T20:56:25.568Z,60.80
2023-02-19T20:58:55.784Z,59.37
2023-02-19T21:01:28.239Z,33.03
2023-02-19T21:03:57.182Z,32.57
2023-02-19T21:06:26.020Z,29.63
2023-02-19T21:08:55.469Z,33.10
2023-02-19T21:11:24.876Z,38.57
2023-02-19T21:13:56.874Z,32.50
2023-02-19T21:16:26.117Z,32.87
2023-02-19T21:18:58.339Z,33.70
2023-02-19T21:21:27.629Z,32.00
2023-02-19T21:24:00.016Z,35.10
2023-02-19T21:26:35.941Z,33.97
2023-02-19T21:29:14.156Z,41.47
2023-02-19T21:31:45.152Z,31.40
2023-02-19T21:34:16.532Z,33.13
2023-02-19T21:36:46.854Z,45.63
2023-02-19T21:39:17.386Z,34.80
2023-02-19T21:41:46.567Z,34.93
2023-02-19T21:44:17.398Z,41.27
2023-02-19T21:46:48.992Z,98.23
2023-02-19T21:49:18.438Z,57.63
2023-02-19T21:51:49.514Z,51.77
2023-02-19T21:54:21.227Z,52.60
2023-02-19T21:56:50.556Z,58.73
2023-02-19T21:59:21.656Z,49.77
2023-02-19T22:01:51.174Z,48.30
2023-02-19T22:04:22.263Z,33.63
2023-02-19T22:06:52.636Z,32.80
2023-02-19T22:09:25.061Z,32.03
2023-02-19T22:11:53.939Z,27.23
2023-02-19T22:14:24.240Z,29.90
2023-02-19T22:19:39.985Z,42.53
2023-02-19T22:22:10.798Z,45.10
2023-02-19T22:24:40.388Z,44.70
2023-02-19T22:27:12.879Z,53.47
2023-02-19T22:30:13.839Z,53.27
2023-02-19T22:32:47.503Z,61.30
2023-02-19T22:35:22.523Z,65.47
2023-02-19T22:37:59.267Z,57.93
2023-02-19T22:40:35.575Z,44.60
2023-02-19T22:43:06.199Z,44.83
2023-02-19T22:45:36.404Z,42.27
2023-02-19T22:48:30.086Z,36.83
2023-02-19T22:51:05.579Z,36.13
2023-02-19T22:53:40.813Z,50.87
2023-02-19T22:56:24.863Z,46.43
2023-02-19T22:58:54.833Z,47.70
2023-02-19T23:01:50.185Z,53.80
2023-02-19T23:16:15.508Z,39.03
2023-02-19T23:21:50.099Z,33.83
2023-02-19T23:24:19.631Z,33.10
2023-02-19T23:26:56.567Z,35.60
2023-02-19T23:29:39.535Z,31.13
2023-02-19T23:32:08.545Z,33.00
2023-02-19T23:34:47.790Z,32.97
2023-02-19T23:37:20.396Z,32.53
2023-02-19T23:39:52.321Z,36.30
2023-02-19T23:42:21.488Z,31.63
2023-02-19T23:44:51.632Z,35.73
2023-02-19T23:47:22.744Z,29.70
2023-02-19T23:49:53.769Z,34.23
2023-02-19T23:52:29.158Z,33.63
2023-02-19T23:55:01.150Z,30.40
2023-02-19T23:57:32.030Z,30.20
